sensor_id;sensor_type;location;lat;lon;timestamp;temperature;humidity
11650;DHT22;5881;48.522;7.682;2023-05-07T00:02:02;13.70;1.00
11650;DHT22;5881;48.522;7.682;2023-05-07T00:04:29;13.70;35.20
11650;DHT22;5881;48.522;7.682;2023-05-07T00:07:01;13.80;23.90
11650;DHT22;5881;48.522;7.682;2023-05-07T00:09:26;13.70;99.90
11650;DHT22;5881;48.522;7.682;2023-05-07T00:11:52;13.80;10.70
11650;DHT22;5881;48.522;7.682;2023-05-07T00:14:18;13.70;99.90
11650;DHT22;5881;48.522;7.682;2023-05-07T00:16:44;13.70;99.90
11650;DHT22;5881;48.522;7.682;2023-05-07T00:19:09;13.70;99.90
11650;DHT22;5881;48.522;7.682;2023-05-07T00:21:35;13.70;99.90
11650;DHT22;5881;48.522;7.682;2023-05-07T00:24:01;13.70;1.00
11650;DHT22;5881;48.522;7.682;2023-05-07T00:26:26;13.80;14.30
11650;DHT22;5881;48.522;7.682;2023-05-07T00:28:52;13.70;99.90
11650;DHT22;5881;48.522;7.682;2023-05-07T00:31:17;13.70;1.00
11650;DHT22;5881;48.522;7.682;2023-05-07T00:33:43;13.70;99.90
11650;DHT22;5881;48.522;7.682;2023-05-07T00:36:09;13.70;1.00
11650;DHT22;5881;48.522;7.682;2023-05-07T00:38:34;13.70;99.90
11650;DHT22;5881;48.522;7.682;2023-05-07T00:41:00;13.70;1.00
11650;DHT22;5881;48.522;7.682;2023-05-07T00:43:27;13.50;1.00
11650;DHT22;5881;48.522;7.682;2023-05-07T00:45:53;13.50;1.00
11650;DHT22;5881;48.522;7.682;2023-05-07T00:48:19;13.50;1.00
11650;DHT22;5881;48.522;7.682;2023-05-07T00:50:45;13.50;99.90
11650;DHT22;5881;48.522;7.682;2023-05-07T00:53:11;13.50;1.00
11650;DHT22;5881;48.522;7.682;2023-05-07T00:55:37;13.40;99.90
11650;DHT22;5881;48.522;7.682;2023-05-07T00:58:03;13.40;99.90
11650;DHT22;5881;48.522;7.682;2023-05-07T01:00:28;13.40;99.90
11650;DHT22;5881;48.522;7.682;2023-05-07T01:02:54;13.50;1.00
11650;DHT22;5881;48.522;7.682;2023-05-07T01:05:20;13.40;1.00
11650;DHT22;5881;48.522;7.682;2023-05-07T01:07:48;13.40;1.00
11650;DHT22;5881;48.522;7.682;2023-05-07T01:10:15;13.40;1.00
11650;DHT22;5881;48.522;7.682;2023-05-07T01:12:41;13.50;99.90
11650;DHT22;5881;48.522;7.682;2023-05-07T01:15:08;13.40;99.90
11650;DHT22;5881;48.522;7.682;2023-05-07T01:17:41;13.30;99.90
11650;DHT22;5881;48.522;7.682;2023-05-07T01:20:08;13.30;1.00
11650;DHT22;5881;48.522;7.682;2023-05-07T01:22:39;13.20;1.00
11650;DHT22;5881;48.522;7.682;2023-05-07T01:25:06;13.20;1.00
11650;DHT22;5881;48.522;7.682;2023-05-07T01:27:32;13.10;1.00
11650;DHT22;5881;48.522;7.682;2023-05-07T01:30:05;13.10;99.90
11650;DHT22;5881;48.522;7.682;2023-05-07T01:32:53;13.10;1.00
11650;DHT22;5881;48.522;7.682;2023-05-07T01:35:25;13.10;1.00
11650;DHT22;5881;48.522;7.682;2023-05-07T01:37:52;13.10;99.90
11650;DHT22;5881;48.522;7.682;2023-05-07T01:40:18;13.10;1.00
11650;DHT22;5881;48.522;7.682;2023-05-07T01:42:44;13.10;99.90
11650;DHT22;5881;48.522;7.682;2023-05-07T01:45:11;13.30;1.00
11650;DHT22;5881;48.522;7.682;2023-05-07T01:47:37;13.00;99.90
11650;DHT22;5881;48.522;7.682;2023-05-07T01:50:05;12.90;1.00
11650;DHT22;5881;48.522;7.682;2023-05-07T01:52:31;12.80;1.00
11650;DHT22;5881;48.522;7.682;2023-05-07T01:54:56;12.70;40.40
11650;DHT22;5881;48.522;7.682;2023-05-07T01:57:22;12.80;1.00
11650;DHT22;5881;48.522;7.682;2023-05-07T01:59:48;12.80;99.90
11650;DHT22;5881;48.522;7.682;2023-05-07T02:02:13;12.70;1.00
11650;DHT22;5881;48.522;7.682;2023-05-07T02:04:39;12.70;99.90
11650;DHT22;5881;48.522;7.682;2023-05-07T02:07:04;12.70;1.00
11650;DHT22;5881;48.522;7.682;2023-05-07T02:09:30;12.70;99.90
11650;DHT22;5881;48.522;7.682;2023-05-07T02:11:56;12.70;1.00
11650;DHT22;5881;48.522;7.682;2023-05-07T02:14:21;12.80;99.90
11650;DHT22;5881;48.522;7.682;2023-05-07T02:16:47;12.90;99.90
11650;DHT22;5881;48.522;7.682;2023-05-07T02:19:12;13.00;1.00
11650;DHT22;5881;48.522;7.682;2023-05-07T02:21:38;12.90;1.00
11650;DHT22;5881;48.522;7.682;2023-05-07T02:24:04;12.70;1.00
11650;DHT22;5881;48.522;7.682;2023-05-07T02:26:29;12.70;99.90
11650;DHT22;5881;48.522;7.682;2023-05-07T02:28:55;12.80;99.90
11650;DHT22;5881;48.522;7.682;2023-05-07T02:31:21;12.70;1.00
11650;DHT22;5881;48.522;7.682;2023-05-07T02:33:46;12.70;1.00
11650;DHT22;5881;48.522;7.682;2023-05-07T02:36:12;12.60;99.90
11650;DHT22;5881;48.522;7.682;2023-05-07T02:38:38;12.60;1.00
11650;DHT22;5881;48.522;7.682;2023-05-07T02:41:04;12.50;1.00
11650;DHT22;5881;48.522;7.682;2023-05-07T02:43:29;12.40;99.90
11650;DHT22;5881;48.522;7.682;2023-05-07T02:46:02;12.50;99.90
11650;DHT22;5881;48.522;7.682;2023-05-07T02:48:28;12.60;99.90
11650;DHT22;5881;48.522;7.682;2023-05-07T02:50:54;12.50;1.00
11650;DHT22;5881;48.522;7.682;2023-05-07T02:53:19;12.40;1.00
11650;DHT22;5881;48.522;7.682;2023-05-07T02:55:45;12.30;1.00
11650;DHT22;5881;48.522;7.682;2023-05-07T02:58:10;12.20;1.00
11650;DHT22;5881;48.522;7.682;2023-05-07T03:00:36;12.40;1.00
11650;DHT22;5881;48.522;7.682;2023-05-07T03:03:02;12.50;1.00
11650;DHT22;5881;48.522;7.682;2023-05-07T03:05:27;12.50;99.90
11650;DHT22;5881;48.522;7.682;2023-05-07T03:07:53;12.60;1.00
11650;DHT22;5881;48.522;7.682;2023-05-07T03:10:18;12.50;1.00
11650;DHT22;5881;48.522;7.682;2023-05-07T03:12:44;12.30;1.00
11650;DHT22;5881;48.522;7.682;2023-05-07T03:15:10;12.20;1.00
11650;DHT22;5881;48.522;7.682;2023-05-07T03:17:38;12.10;99.90
11650;DHT22;5881;48.522;7.682;2023-05-07T03:20:04;12.10;98.00
11650;DHT22;5881;48.522;7.682;2023-05-07T03:22:29;12.00;28.90
11650;DHT22;5881;48.522;7.682;2023-05-07T03:24:55;12.00;1.00
11650;DHT22;5881;48.522;7.682;2023-05-07T03:27:21;11.90;99.90
11650;DHT22;5881;48.522;7.682;2023-05-07T03:29:46;12.10;1.00
11650;DHT22;5881;48.522;7.682;2023-05-07T03:32:12;12.00;99.90
11650;DHT22;5881;48.522;7.682;2023-05-07T03:34:38;12.00;1.00
11650;DHT22;5881;48.522;7.682;2023-05-07T03:37:03;12.10;1.00
11650;DHT22;5881;48.522;7.682;2023-05-07T03:39:29;12.00;85.30
11650;DHT22;5881;48.522;7.682;2023-05-07T03:41:54;12.00;93.50
11650;DHT22;5881;48.522;7.682;2023-05-07T03:44:20;12.00;97.60
11650;DHT22;5881;48.522;7.682;2023-05-07T03:46:45;11.90;99.90
11650;DHT22;5881;48.522;7.682;2023-05-07T03:49:11;11.80;99.90
11650;DHT22;5881;48.522;7.682;2023-05-07T03:51:37;11.90;99.90
11650;DHT22;5881;48.522;7.682;2023-05-07T03:54:02;11.90;99.90
11650;DHT22;5881;48.522;7.682;2023-05-07T03:56:29;11.80;99.90
11650;DHT22;5881;48.522;7.682;2023-05-07T03:58:56;11.80;99.90
11650;DHT22;5881;48.522;7.682;2023-05-07T04:01:22;11.90;99.90
11650;DHT22;5881;48.522;7.682;2023-05-07T04:03:47;12.00;99.90
11650;DHT22;5881;48.522;7.682;2023-05-07T04:06:13;11.80;1.00
11650;DHT22;5881;48.522;7.682;2023-05-07T04:08:38;11.80;85.10
11650;DHT22;5881;48.522;7.682;2023-05-07T04:11:04;11.70;99.90
11650;DHT22;5881;48.522;7.682;2023-05-07T04:13:30;11.80;99.90
11650;DHT22;5881;48.522;7.682;2023-05-07T04:15:56;11.90;99.90
11650;DHT22;5881;48.522;7.682;2023-05-07T04:18:22;11.90;99.90
11650;DHT22;5881;48.522;7.682;2023-05-07T04:20:48;12.10;95.10
11650;DHT22;5881;48.522;7.682;2023-05-07T04:23:14;12.10;1.00
11650;DHT22;5881;48.522;7.682;2023-05-07T04:25:40;12.10;99.90
11650;DHT22;5881;48.522;7.682;2023-05-07T04:28:06;12.20;1.00
11650;DHT22;5881;48.522;7.682;2023-05-07T04:30:32;12.10;99.90
11650;DHT22;5881;48.522;7.682;2023-05-07T04:32:58;12.10;1.00
11650;DHT22;5881;48.522;7.682;2023-05-07T04:35:23;12.00;64.30
11650;DHT22;5881;48.522;7.682;2023-05-07T04:37:49;12.20;99.90
11650;DHT22;5881;48.522;7.682;2023-05-07T04:40:15;12.20;1.00
11650;DHT22;5881;48.522;7.682;2023-05-07T04:42:41;12.40;99.90
11650;DHT22;5881;48.522;7.682;2023-05-07T04:45:07;12.50;99.90
11650;DHT22;5881;48.522;7.682;2023-05-07T04:47:34;12.50;99.90
11650;DHT22;5881;48.522;7.682;2023-05-07T04:49:59;12.70;99.90
11650;DHT22;5881;48.522;7.682;2023-05-07T04:52:25;12.60;1.00
11650;DHT22;5881;48.522;7.682;2023-05-07T04:54:51;12.70;1.00
11650;DHT22;5881;48.522;7.682;2023-05-07T04:57:16;12.70;1.00
11650;DHT22;5881;48.522;7.682;2023-05-07T04:59:43;12.80;1.00
11650;DHT22;5881;48.522;7.682;2023-05-07T05:02:10;13.00;99.90
11650;DHT22;5881;48.522;7.682;2023-05-07T05:04:36;13.40;1.00
11650;DHT22;5881;48.522;7.682;2023-05-07T05:07:02;14.50;1.00
11650;DHT22;5881;48.522;7.682;2023-05-07T05:09:29;14.70;99.90
11650;DHT22;5881;48.522;7.682;2023-05-07T05:11:55;14.50;99.90
11650;DHT22;5881;48.522;7.682;2023-05-07T05:14:21;15.00;99.90
11650;DHT22;5881;48.522;7.682;2023-05-07T05:16:46;15.20;99.90
11650;DHT22;5881;48.522;7.682;2023-05-07T05:19:12;15.70;99.90
11650;DHT22;5881;48.522;7.682;2023-05-07T05:21:37;15.70;99.90
11650;DHT22;5881;48.522;7.682;2023-05-07T05:24:03;15.50;99.90
11650;DHT22;5881;48.522;7.682;2023-05-07T05:26:29;15.60;99.90
11650;DHT22;5881;48.522;7.682;2023-05-07T05:28:54;15.80;99.90
11650;DHT22;5881;48.522;7.682;2023-05-07T05:31:20;16.10;99.90
11650;DHT22;5881;48.522;7.682;2023-05-07T05:33:46;16.00;99.90
11650;DHT22;5881;48.522;7.682;2023-05-07T05:36:12;16.70;99.90
11650;DHT22;5881;48.522;7.682;2023-05-07T05:38:39;17.40;99.90
11650;DHT22;5881;48.522;7.682;2023-05-07T05:41:04;18.30;99.90
11650;DHT22;5881;48.522;7.682;2023-05-07T05:43:30;18.00;99.90
11650;DHT22;5881;48.522;7.682;2023-05-07T05:45:56;17.40;99.90
11650;DHT22;5881;48.522;7.682;2023-05-07T05:48:22;17.20;99.90
11650;DHT22;5881;48.522;7.682;2023-05-07T05:50:48;16.90;99.90
11650;DHT22;5881;48.522;7.682;2023-05-07T05:53:13;16.70;99.90
11650;DHT22;5881;48.522;7.682;2023-05-07T05:55:39;16.50;99.90
11650;DHT22;5881;48.522;7.682;2023-05-07T05:58:05;16.30;99.90
11650;DHT22;5881;48.522;7.682;2023-05-07T06:00:31;15.90;99.90
11650;DHT22;5881;48.522;7.682;2023-05-07T06:02:57;15.90;99.90
11650;DHT22;5881;48.522;7.682;2023-05-07T06:05:22;15.50;99.90
11650;DHT22;5881;48.522;7.682;2023-05-07T06:07:48;15.60;99.90
11650;DHT22;5881;48.522;7.682;2023-05-07T06:10:13;15.50;99.90
11650;DHT22;5881;48.522;7.682;2023-05-07T06:12:39;15.70;99.90
11650;DHT22;5881;48.522;7.682;2023-05-07T06:15:05;15.70;99.90
11650;DHT22;5881;48.522;7.682;2023-05-07T06:17:31;15.80;99.90
11650;DHT22;5881;48.522;7.682;2023-05-07T06:19:57;16.10;99.90
11650;DHT22;5881;48.522;7.682;2023-05-07T06:22:22;16.30;99.90
11650;DHT22;5881;48.522;7.682;2023-05-07T06:24:48;16.30;99.90
11650;DHT22;5881;48.522;7.682;2023-05-07T06:27:14;16.40;99.90
11650;DHT22;5881;48.522;7.682;2023-05-07T06:29:39;16.90;99.90
11650;DHT22;5881;48.522;7.682;2023-05-07T06:32:12;16.90;99.90
11650;DHT22;5881;48.522;7.682;2023-05-07T06:34:39;17.10;99.90
11650;DHT22;5881;48.522;7.682;2023-05-07T06:37:05;17.70;99.90
11650;DHT22;5881;48.522;7.682;2023-05-07T06:39:30;18.40;99.90
11650;DHT22;5881;48.522;7.682;2023-05-07T06:41:56;18.20;56.40
11650;DHT22;5881;48.522;7.682;2023-05-07T06:44:22;18.70;53.70
11650;DHT22;5881;48.522;7.682;2023-05-07T06:46:48;19.20;44.30
11650;DHT22;5881;48.522;7.682;2023-05-07T06:49:13;19.20;39.70
11650;DHT22;5881;48.522;7.682;2023-05-07T06:51:39;18.60;30.70
11650;DHT22;5881;48.522;7.682;2023-05-07T06:54:05;18.10;29.70
11650;DHT22;5881;48.522;7.682;2023-05-07T06:56:31;17.60;32.40
11650;DHT22;5881;48.522;7.682;2023-05-07T06:58:57;17.90;29.80
11650;DHT22;5881;48.522;7.682;2023-05-07T07:01:22;18.00;30.00
11650;DHT22;5881;48.522;7.682;2023-05-07T07:03:48;18.90;33.70
11650;DHT22;5881;48.522;7.682;2023-05-07T07:06:14;19.60;28.00
11650;DHT22;5881;48.522;7.682;2023-05-07T07:08:39;20.60;24.00
11650;DHT22;5881;48.522;7.682;2023-05-07T07:11:06;21.90;18.00
11650;DHT22;5881;48.522;7.682;2023-05-07T07:13:31;21.60;1.00
11650;DHT22;5881;48.522;7.682;2023-05-07T07:15:57;21.80;1.00
11650;DHT22;5881;48.522;7.682;2023-05-07T07:18:23;21.40;1.00
11650;DHT22;5881;48.522;7.682;2023-05-07T07:20:48;20.20;1.00
11650;DHT22;5881;48.522;7.682;2023-05-07T07:23:14;19.80;1.00
11650;DHT22;5881;48.522;7.682;2023-05-07T07:25:40;19.80;1.00
11650;DHT22;5881;48.522;7.682;2023-05-07T07:28:06;19.50;1.00
11650;DHT22;5881;48.522;7.682;2023-05-07T07:30:32;21.80;1.00
11650;DHT22;5881;48.522;7.682;2023-05-07T07:32:57;22.70;1.00
11650;DHT22;5881;48.522;7.682;2023-05-07T07:35:31;23.60;1.00
11650;DHT22;5881;48.522;7.682;2023-05-07T07:37:57;24.00;1.00
11650;DHT22;5881;48.522;7.682;2023-05-07T07:40:23;21.90;1.00
11650;DHT22;5881;48.522;7.682;2023-05-07T07:42:48;20.90;1.00
11650;DHT22;5881;48.522;7.682;2023-05-07T07:45:14;21.30;1.00
11650;DHT22;5881;48.522;7.682;2023-05-07T07:47:40;21.60;1.00
11650;DHT22;5881;48.522;7.682;2023-05-07T07:50:06;22.20;1.00
11650;DHT22;5881;48.522;7.682;2023-05-07T07:52:32;22.10;1.00
11650;DHT22;5881;48.522;7.682;2023-05-07T07:54:58;21.20;1.00
11650;DHT22;5881;48.522;7.682;2023-05-07T07:57:23;20.50;1.00
11650;DHT22;5881;48.522;7.682;2023-05-07T07:59:49;20.50;1.00
11650;DHT22;5881;48.522;7.682;2023-05-07T08:02:15;20.50;1.00
11650;DHT22;5881;48.522;7.682;2023-05-07T08:04:41;22.30;1.00
11650;DHT22;5881;48.522;7.682;2023-05-07T08:07:12;23.60;1.00
11650;DHT22;5881;48.522;7.682;2023-05-07T08:09:38;23.70;1.00
11650;DHT22;5881;48.522;7.682;2023-05-07T08:12:07;22.10;1.00
11650;DHT22;5881;48.522;7.682;2023-05-07T08:14:34;22.10;1.00
11650;DHT22;5881;48.522;7.682;2023-05-07T08:17:00;22.30;1.00
11650;DHT22;5881;48.522;7.682;2023-05-07T08:19:26;22.60;1.00
11650;DHT22;5881;48.522;7.682;2023-05-07T08:21:51;23.40;1.00
11650;DHT22;5881;48.522;7.682;2023-05-07T08:24:17;23.30;1.00
11650;DHT22;5881;48.522;7.682;2023-05-07T08:26:43;23.10;1.00
11650;DHT22;5881;48.522;7.682;2023-05-07T08:29:09;22.80;1.00
11650;DHT22;5881;48.522;7.682;2023-05-07T08:31:35;22.70;1.00
11650;DHT22;5881;48.522;7.682;2023-05-07T08:34:00;22.10;1.00
11650;DHT22;5881;48.522;7.682;2023-05-07T08:36:26;21.80;1.00
11650;DHT22;5881;48.522;7.682;2023-05-07T08:38:52;22.10;1.00
11650;DHT22;5881;48.522;7.682;2023-05-07T08:41:18;22.00;1.00
11650;DHT22;5881;48.522;7.682;2023-05-07T08:43:47;22.10;1.00
11650;DHT22;5881;48.522;7.682;2023-05-07T08:46:17;22.10;1.00
11650;DHT22;5881;48.522;7.682;2023-05-07T08:48:44;23.70;1.00
11650;DHT22;5881;48.522;7.682;2023-05-07T08:51:13;24.10;1.00
11650;DHT22;5881;48.522;7.682;2023-05-07T08:53:40;23.60;1.00
11650;DHT22;5881;48.522;7.682;2023-05-07T08:56:10;24.60;1.00
11650;DHT22;5881;48.522;7.682;2023-05-07T08:58:36;24.70;1.00
11650;DHT22;5881;48.522;7.682;2023-05-07T09:01:22;23.80;1.00
11650;DHT22;5881;48.522;7.682;2023-05-07T09:03:49;22.90;1.00
11650;DHT22;5881;48.522;7.682;2023-05-07T09:06:15;23.00;1.00
11650;DHT22;5881;48.522;7.682;2023-05-07T09:08:40;22.50;1.00
11650;DHT22;5881;48.522;7.682;2023-05-07T09:11:06;22.70;1.00
11650;DHT22;5881;48.522;7.682;2023-05-07T09:13:32;22.00;1.00
11650;DHT22;5881;48.522;7.682;2023-05-07T09:15:57;21.50;1.00
11650;DHT22;5881;48.522;7.682;2023-05-07T09:18:26;21.20;1.00
11650;DHT22;5881;48.522;7.682;2023-05-07T09:20:51;21.40;1.00
11650;DHT22;5881;48.522;7.682;2023-05-07T09:23:17;21.50;1.00
11650;DHT22;5881;48.522;7.682;2023-05-07T09:25:42;21.90;1.00
11650;DHT22;5881;48.522;7.682;2023-05-07T09:28:08;21.80;1.00
11650;DHT22;5881;48.522;7.682;2023-05-07T09:30:35;22.00;1.00
11650;DHT22;5881;48.522;7.682;2023-05-07T09:33:03;22.00;1.00
11650;DHT22;5881;48.522;7.682;2023-05-07T09:35:31;21.90;1.00
11650;DHT22;5881;48.522;7.682;2023-05-07T09:37:59;21.90;1.00
11650;DHT22;5881;48.522;7.682;2023-05-07T09:40:27;22.30;1.00
11650;DHT22;5881;48.522;7.682;2023-05-07T09:42:53;22.70;1.00
11650;DHT22;5881;48.522;7.682;2023-05-07T09:45:37;22.90;1.00
11650;DHT22;5881;48.522;7.682;2023-05-07T09:48:05;22.90;1.00
11650;DHT22;5881;48.522;7.682;2023-05-07T09:50:48;22.40;1.00
11650;DHT22;5881;48.522;7.682;2023-05-07T09:53:17;22.60;1.00
11650;DHT22;5881;48.522;7.682;2023-05-07T09:55:43;22.10;1.00
11650;DHT22;5881;48.522;7.682;2023-05-07T09:58:09;21.80;1.00
11650;DHT22;5881;48.522;7.682;2023-05-07T10:00:37;21.60;1.00
11650;DHT22;5881;48.522;7.682;2023-05-07T10:03:06;21.90;1.00
11650;DHT22;5881;48.522;7.682;2023-05-07T10:05:32;21.80;1.00
11650;DHT22;5881;48.522;7.682;2023-05-07T10:07:59;21.90;1.00
11650;DHT22;5881;48.522;7.682;2023-05-07T10:10:27;21.70;1.00
11650;DHT22;5881;48.522;7.682;2023-05-07T10:12:53;22.20;1.00
11650;DHT22;5881;48.522;7.682;2023-05-07T10:15:19;22.00;1.00
11650;DHT22;5881;48.522;7.682;2023-05-07T10:17:45;21.70;1.00
11650;DHT22;5881;48.522;7.682;2023-05-07T10:20:11;22.00;1.00
11650;DHT22;5881;48.522;7.682;2023-05-07T10:22:45;22.30;1.00
11650;DHT22;5881;48.522;7.682;2023-05-07T10:25:23;22.00;1.00
11650;DHT22;5881;48.522;7.682;2023-05-07T10:27:51;22.00;1.00
11650;DHT22;5881;48.522;7.682;2023-05-07T10:30:44;22.50;1.00
11650;DHT22;5881;48.522;7.682;2023-05-07T10:33:11;22.40;1.00
11650;DHT22;5881;48.522;7.682;2023-05-07T10:35:41;23.00;1.00
11650;DHT22;5881;48.522;7.682;2023-05-07T10:38:07;22.80;1.00
11650;DHT22;5881;48.522;7.682;2023-05-07T10:40:33;23.00;1.00
11650;DHT22;5881;48.522;7.682;2023-05-07T10:43:00;23.50;1.00
11650;DHT22;5881;48.522;7.682;2023-05-07T10:45:27;23.30;1.00
11650;DHT22;5881;48.522;7.682;2023-05-07T10:48:15;23.90;1.00
11650;DHT22;5881;48.522;7.682;2023-05-07T10:50:44;25.20;1.00
11650;DHT22;5881;48.522;7.682;2023-05-07T10:55:51;25.20;1.00
11650;DHT22;5881;48.522;7.682;2023-05-07T10:58:27;25.60;1.00
11650;DHT22;5881;48.522;7.682;2023-05-07T11:00:58;26.00;1.00
11650;DHT22;5881;48.522;7.682;2023-05-07T11:03:25;25.30;1.00
11650;DHT22;5881;48.522;7.682;2023-05-07T11:06:17;26.10;1.00
11650;DHT22;5881;48.522;7.682;2023-05-07T11:08:58;25.70;1.00
11650;DHT22;5881;48.522;7.682;2023-05-07T11:11:46;25.50;1.00
11650;DHT22;5881;48.522;7.682;2023-05-07T11:14:14;25.30;1.00
11650;DHT22;5881;48.522;7.682;2023-05-07T11:16:41;24.60;1.00
11650;DHT22;5881;48.522;7.682;2023-05-07T11:19:06;24.50;1.00
11650;DHT22;5881;48.522;7.682;2023-05-07T11:21:40;24.90;1.00
11650;DHT22;5881;48.522;7.682;2023-05-07T11:24:07;24.20;1.00
11650;DHT22;5881;48.522;7.682;2023-05-07T11:26:53;24.20;1.00
11650;DHT22;5881;48.522;7.682;2023-05-07T11:29:21;24.20;1.00
11650;DHT22;5881;48.522;7.682;2023-05-07T11:31:55;23.50;1.00
11650;DHT22;5881;48.522;7.682;2023-05-07T11:34:25;23.20;1.00
11650;DHT22;5881;48.522;7.682;2023-05-07T11:36:51;23.20;1.00
11650;DHT22;5881;48.522;7.682;2023-05-07T11:39:24;23.10;1.00
11650;DHT22;5881;48.522;7.682;2023-05-07T11:41:50;23.00;1.00
11650;DHT22;5881;48.522;7.682;2023-05-07T11:44:15;23.20;1.00
11650;DHT22;5881;48.522;7.682;2023-05-07T11:46:43;23.10;1.00
11650;DHT22;5881;48.522;7.682;2023-05-07T11:49:10;22.90;1.00
11650;DHT22;5881;48.522;7.682;2023-05-07T11:51:36;22.60;1.00
11650;DHT22;5881;48.522;7.682;2023-05-07T11:54:03;22.70;1.00
11650;DHT22;5881;48.522;7.682;2023-05-07T11:56:29;22.20;1.00
11650;DHT22;5881;48.522;7.682;2023-05-07T11:58:59;22.20;1.00
11650;DHT22;5881;48.522;7.682;2023-05-07T12:01:24;22.30;1.00
11650;DHT22;5881;48.522;7.682;2023-05-07T12:03:50;22.20;1.00
11650;DHT22;5881;48.522;7.682;2023-05-07T12:06:16;22.20;1.00
11650;DHT22;5881;48.522;7.682;2023-05-07T12:08:43;22.10;1.00
11650;DHT22;5881;48.522;7.682;2023-05-07T12:11:13;22.30;1.00
11650;DHT22;5881;48.522;7.682;2023-05-07T12:13:40;22.00;1.00
11650;DHT22;5881;48.522;7.682;2023-05-07T12:16:07;22.00;1.00
11650;DHT22;5881;48.522;7.682;2023-05-07T12:18:34;22.00;1.00
11650;DHT22;5881;48.522;7.682;2023-05-07T12:21:01;22.00;1.00
11650;DHT22;5881;48.522;7.682;2023-05-07T12:23:27;22.00;1.00
11650;DHT22;5881;48.522;7.682;2023-05-07T12:25:53;21.90;1.00
11650;DHT22;5881;48.522;7.682;2023-05-07T12:28:19;21.90;1.00
11650;DHT22;5881;48.522;7.682;2023-05-07T12:30:47;21.90;1.00
11650;DHT22;5881;48.522;7.682;2023-05-07T12:33:33;21.80;1.00
11650;DHT22;5881;48.522;7.682;2023-05-07T12:36:03;21.40;1.00
11650;DHT22;5881;48.522;7.682;2023-05-07T12:38:35;20.90;1.00
11650;DHT22;5881;48.522;7.682;2023-05-07T12:41:01;20.70;1.00
11650;DHT22;5881;48.522;7.682;2023-05-07T12:43:28;20.90;1.00
11650;DHT22;5881;48.522;7.682;2023-05-07T12:45:55;21.10;1.00
11650;DHT22;5881;48.522;7.682;2023-05-07T12:48:22;21.30;1.00
11650;DHT22;5881;48.522;7.682;2023-05-07T12:50:51;21.50;1.00
11650;DHT22;5881;48.522;7.682;2023-05-07T12:53:21;21.20;1.00
11650;DHT22;5881;48.522;7.682;2023-05-07T12:55:49;20.70;1.00
11650;DHT22;5881;48.522;7.682;2023-05-07T12:58:16;20.70;1.00
11650;DHT22;5881;48.522;7.682;2023-05-07T13:00:42;20.70;1.00
11650;DHT22;5881;48.522;7.682;2023-05-07T13:03:08;20.50;15.10
11650;DHT22;5881;48.522;7.682;2023-05-07T13:05:34;20.50;99.90
11650;DHT22;5881;48.522;7.682;2023-05-07T13:08:00;20.80;99.90
11650;DHT22;5881;48.522;7.682;2023-05-07T13:10:27;20.70;99.90
11650;DHT22;5881;48.522;7.682;2023-05-07T13:12:53;20.30;99.90
11650;DHT22;5881;48.522;7.682;2023-05-07T13:15:18;20.20;99.90
11650;DHT22;5881;48.522;7.682;2023-05-07T13:17:44;20.40;99.90
11650;DHT22;5881;48.522;7.682;2023-05-07T13:20:10;20.50;99.90
11650;DHT22;5881;48.522;7.682;2023-05-07T13:22:40;20.40;99.90
11650;DHT22;5881;48.522;7.682;2023-05-07T13:25:06;20.40;99.90
11650;DHT22;5881;48.522;7.682;2023-05-07T13:27:32;20.30;99.90
11650;DHT22;5881;48.522;7.682;2023-05-07T13:30:01;20.20;99.90
11650;DHT22;5881;48.522;7.682;2023-05-07T13:32:26;20.00;99.90
11650;DHT22;5881;48.522;7.682;2023-05-07T13:34:52;20.20;98.10
11650;DHT22;5881;48.522;7.682;2023-05-07T13:37:17;20.40;81.60
11650;DHT22;5881;48.522;7.682;2023-05-07T13:39:43;20.70;66.10
11650;DHT22;5881;48.522;7.682;2023-05-07T13:42:09;21.10;33.30
11650;DHT22;5881;48.522;7.682;2023-05-07T13:44:35;21.30;28.00
11650;DHT22;5881;48.522;7.682;2023-05-07T13:47:01;21.30;20.80
11650;DHT22;5881;48.522;7.682;2023-05-07T13:49:27;21.50;17.30
11650;DHT22;5881;48.522;7.682;2023-05-07T13:51:52;21.30;7.50
11650;DHT22;5881;48.522;7.682;2023-05-07T13:54:18;21.10;1.00
11650;DHT22;5881;48.522;7.682;2023-05-07T13:56:44;21.00;1.00
11650;DHT22;5881;48.522;7.682;2023-05-07T13:59:09;21.00;2.00
11650;DHT22;5881;48.522;7.682;2023-05-07T14:01:35;20.80;2.40
11650;DHT22;5881;48.522;7.682;2023-05-07T14:04:00;21.00;1.00
11650;DHT22;5881;48.522;7.682;2023-05-07T14:06:26;20.90;1.00
11650;DHT22;5881;48.522;7.682;2023-05-07T14:08:52;21.20;1.00
11650;DHT22;5881;48.522;7.682;2023-05-07T14:11:17;21.40;1.00
11650;DHT22;5881;48.522;7.682;2023-05-07T14:13:43;21.40;1.00
11650;DHT22;5881;48.522;7.682;2023-05-07T14:16:08;21.30;1.00
11650;DHT22;5881;48.522;7.682;2023-05-07T14:18:34;21.40;1.00
11650;DHT22;5881;48.522;7.682;2023-05-07T14:21:02;21.20;1.00
11650;DHT22;5881;48.522;7.682;2023-05-07T14:23:28;21.20;1.00
11650;DHT22;5881;48.522;7.682;2023-05-07T14:25:53;21.20;1.00
11650;DHT22;5881;48.522;7.682;2023-05-07T14:28:19;21.20;1.00
11650;DHT22;5881;48.522;7.682;2023-05-07T14:30:45;21.20;1.00
11650;DHT22;5881;48.522;7.682;2023-05-07T14:33:11;21.40;1.00
11650;DHT22;5881;48.522;7.682;2023-05-07T14:35:36;21.20;1.00
11650;DHT22;5881;48.522;7.682;2023-05-07T14:38:02;21.30;1.00
11650;DHT22;5881;48.522;7.682;2023-05-07T14:40:27;21.20;1.00
11650;DHT22;5881;48.522;7.682;2023-05-07T14:42:53;21.00;1.00
11650;DHT22;5881;48.522;7.682;2023-05-07T14:45:20;21.00;1.00
11650;DHT22;5881;48.522;7.682;2023-05-07T14:47:45;20.90;1.00
11650;DHT22;5881;48.522;7.682;2023-05-07T14:50:11;20.90;1.00
11650;DHT22;5881;48.522;7.682;2023-05-07T14:52:36;20.90;1.00
11650;DHT22;5881;48.522;7.682;2023-05-07T14:55:02;21.20;1.00
11650;DHT22;5881;48.522;7.682;2023-05-07T14:57:28;21.30;1.00
11650;DHT22;5881;48.522;7.682;2023-05-07T14:59:54;21.40;1.00
11650;DHT22;5881;48.522;7.682;2023-05-07T15:02:19;21.40;1.00
11650;DHT22;5881;48.522;7.682;2023-05-07T15:04:45;21.60;1.00
11650;DHT22;5881;48.522;7.682;2023-05-07T15:07:14;21.50;1.00
11650;DHT22;5881;48.522;7.682;2023-05-07T15:09:44;21.60;1.00
11650;DHT22;5881;48.522;7.682;2023-05-07T15:12:10;21.80;1.00
11650;DHT22;5881;48.522;7.682;2023-05-07T15:14:37;21.80;1.00
11650;DHT22;5881;48.522;7.682;2023-05-07T15:17:03;21.70;1.00
11650;DHT22;5881;48.522;7.682;2023-05-07T15:19:28;21.80;1.00
11650;DHT22;5881;48.522;7.682;2023-05-07T15:21:56;21.90;1.00
11650;DHT22;5881;48.522;7.682;2023-05-07T15:24:23;22.10;1.00
11650;DHT22;5881;48.522;7.682;2023-05-07T15:26:49;21.90;1.00
11650;DHT22;5881;48.522;7.682;2023-05-07T15:29:14;21.90;1.00
11650;DHT22;5881;48.522;7.682;2023-05-07T15:31:40;21.70;1.00
11650;DHT22;5881;48.522;7.682;2023-05-07T15:34:06;21.80;1.00
11650;DHT22;5881;48.522;7.682;2023-05-07T15:36:31;21.60;1.00
11650;DHT22;5881;48.522;7.682;2023-05-07T15:38:57;21.50;1.00
11650;DHT22;5881;48.522;7.682;2023-05-07T15:41:22;21.50;1.00
11650;DHT22;5881;48.522;7.682;2023-05-07T15:43:50;21.90;1.00
11650;DHT22;5881;48.522;7.682;2023-05-07T15:46:20;22.20;1.00
11650;DHT22;5881;48.522;7.682;2023-05-07T15:48:46;22.00;1.00
11650;DHT22;5881;48.522;7.682;2023-05-07T15:51:13;21.90;1.00
11650;DHT22;5881;48.522;7.682;2023-05-07T15:53:38;22.00;1.00
11650;DHT22;5881;48.522;7.682;2023-05-07T15:56:05;22.00;1.00
11650;DHT22;5881;48.522;7.682;2023-05-07T15:58:31;21.80;1.00